Time;durP1;ratioP1;P1;durP2;ratioP2;P2;SDS_P1;SDS_P2;PMS_P1;PMS_P2;Temp;Humidity;BMP_temperature;BMP_pressure;BME280_temperature;BME280_humidity;BME280_pressure;Samples;Min_cycle;Max_cycle;Signal;HPM_P1;HPM_P2
2023/03/02 00:00:14;;;;;;;60.83;34.37;;;;;;;;;;5012226;28;20392;-82
2023/03/02 00:02:41;;;;;;;49.90;31.97;;;;;;;;;;5011541;28;25212;-82
2023/03/02 00:05:08;;;;;;;38.17;29.13;;;;;;;;;;5011828;28;20460;-82
2023/03/02 00:07:34;;;;;;;67.35;37.45;;;;;;;;;;5011732;28;20382;-82
2023/03/02 00:10:00;;;;;;;35.43;27.73;;;;;;;;;;4993547;28;20509;-82
2023/03/02 00:12:27;;;;;;;33.65;27.05;;;;;;;;;;5011829;28;20382;-82
2023/03/02 00:14:54;;;;;;;39.85;29.38;;;;;;;;;;5001428;28;20377;-82
2023/03/02 00:17:26;;;;;;;42.00;29.40;;;;;;;;;;4992743;28;20421;-82
2023/03/02 00:19:53;;;;;;;42.83;29.65;;;;;;;;;;5007847;28;20384;-83
2023/03/02 00:22:19;;;;;;;56.17;36.92;;;;;;;;;;5000949;28;20752;-82
2023/03/02 00:24:45;;;;;;;36.42;27.70;;;;;;;;;;5018111;28;20423;-82
2023/03/02 00:27:11;;;;;;;42.97;30.25;;;;;;;;;;5018229;28;20381;-82
2023/03/02 00:29:37;;;;;;;31.80;25.63;;;;;;;;;;5019487;28;20404;-82
2023/03/02 00:32:03;;;;;;;35.72;27.42;;;;;;;;;;5020393;28;20420;-81
2023/03/02 00:34:31;;;;;;;37.00;27.70;;;;;;;;;;5014177;28;20790;-81
2023/03/02 00:36:57;;;;;;;33.65;27.60;;;;;;;;;;5011314;28;20491;-82
2023/03/02 00:39:23;;;;;;;33.42;26.77;;;;;;;;;;5011090;28;20727;-83
2023/03/02 00:41:49;;;;;;;33.25;26.80;;;;;;;;;;4992327;28;20472;-83
2023/03/02 00:44:19;;;;;;;35.90;28.02;;;;;;;;;;5010303;28;20456;-84
2023/03/02 00:46:45;;;;;;;34.67;27.53;;;;;;;;;;5010210;28;20392;-84
2023/03/02 00:49:11;;;;;;;34.72;27.55;;;;;;;;;;5011138;28;20397;-83
2023/03/02 00:51:37;;;;;;;35.35;28.00;;;;;;;;;;5012391;28;20424;-83
2023/03/02 00:54:03;;;;;;;36.07;27.50;;;;;;;;;;5012028;28;20435;-84
2023/03/02 00:56:30;;;;;;;36.05;27.52;;;;;;;;;;5013215;28;20389;-83
2023/03/02 00:58:56;;;;;;;33.88;27.40;;;;;;;;;;5011517;28;20396;-83
2023/03/02 01:01:22;;;;;;;34.85;27.80;;;;;;;;;;5011586;28;20459;-83
2023/03/02 01:03:48;;;;;;;38.42;29.00;;;;;;;;;;5011572;28;20384;-84
2023/03/02 01:06:15;;;;;;;38.88;29.45;;;;;;;;;;5011444;28;20471;-84
2023/03/02 01:08:41;;;;;;;40.08;30.00;;;;;;;;;;5011496;28;20468;-82
2023/03/02 01:11:14;;;;;;;37.63;30.07;;;;;;;;;;5011316;28;20432;-82
2023/03/02 01:13:40;;;;;;;40.17;30.02;;;;;;;;;;5007975;28;20428;-84
2023/03/02 01:16:06;;;;;;;41.75;31.15;;;;;;;;;;5006729;28;20427;-84
2023/03/02 01:18:33;;;;;;;38.88;29.90;;;;;;;;;;5011366;28;20389;-83
2023/03/02 01:21:04;;;;;;;44.20;32.50;;;;;;;;;;5011574;28;20851;-82
2023/03/02 01:23:30;;;;;;;45.38;33.55;;;;;;;;;;5013987;28;20393;-85
2023/03/02 01:25:56;;;;;;;47.08;33.78;;;;;;;;;;5014932;28;20387;-83
2023/03/02 01:28:22;;;;;;;47.03;34.10;;;;;;;;;;5014351;28;20381;-84
2023/03/02 01:30:48;;;;;;;48.10;35.80;;;;;;;;;;4994994;28;20433;-83
2023/03/02 01:33:14;;;;;;;47.35;34.40;;;;;;;;;;4995093;28;20926;-83
2023/03/02 01:35:40;;;;;;;48.10;35.38;;;;;;;;;;4995037;28;20528;-85
2023/03/02 01:38:06;;;;;;;49.17;35.30;;;;;;;;;;4995046;28;20469;-82
2023/03/02 01:40:32;;;;;;;46.20;33.97;;;;;;;;;;4994879;28;20456;-84
2023/03/02 01:43:03;;;;;;;48.25;34.60;;;;;;;;;;4995091;28;20397;-85
2023/03/02 01:45:50;;;;;;;50.28;35.35;;;;;;;;;;4995053;28;20537;-83
2023/03/02 01:48:18;;;;;;;51.13;35.53;;;;;;;;;;4994460;28;25105;-83
2023/03/02 01:50:44;;;;;;;48.75;35.33;;;;;;;;;;4977150;28;20438;-83
2023/03/02 01:53:10;;;;;;;49.10;35.40;;;;;;;;;;4994624;28;20390;-83
2023/03/02 01:55:38;;;;;;;50.45;34.33;;;;;;;;;;4994593;28;20477;-83
2023/03/02 01:58:05;;;;;;;46.00;33.63;;;;;;;;;;4994633;28;20379;-84
2023/03/02 02:00:32;;;;;;;48.92;34.33;;;;;;;;;;4994669;28;20401;-83
2023/03/02 02:03:07;;;;;;;45.08;32.55;;;;;;;;;;4994593;28;20422;-83
2023/03/02 02:05:34;;;;;;;48.53;33.83;;;;;;;;;;4977024;28;20397;-83
2023/03/02 02:08:00;;;;;;;46.95;33.72;;;;;;;;;;4994544;28;20398;-84
2023/03/02 02:10:26;;;;;;;46.55;34.15;;;;;;;;;;4994444;28;20418;-83
2023/03/02 02:12:52;;;;;;;47.28;33.30;;;;;;;;;;4999588;28;20403;-83
2023/03/02 02:15:18;;;;;;;45.58;33.47;;;;;;;;;;5005558;28;20455;-84
2023/03/02 02:17:44;;;;;;;47.20;33.20;;;;;;;;;;5013591;28;20502;-83
2023/03/02 02:20:36;;;;;;;48.72;33.65;;;;;;;;;;5002237;28;20398;-83
2023/03/02 02:23:02;;;;;;;46.07;33.50;;;;;;;;;;4978367;28;20392;-83
2023/03/02 02:25:43;;;;;;;47.75;34.70;;;;;;;;;;4997998;28;20399;-84
2023/03/02 02:28:15;;;;;;;49.05;34.53;;;;;;;;;;4995548;28;20431;-82
2023/03/02 02:30:41;;;;;;;49.80;35.00;;;;;;;;;;4984308;28;20429;-81
2023/03/02 02:33:12;;;;;;;49.23;34.80;;;;;;;;;;4975303;28;20486;-83
2023/03/02 02:35:39;;;;;;;48.90;34.20;;;;;;;;;;4996928;28;20391;-83
2023/03/02 02:38:06;;;;;;;49.83;35.17;;;;;;;;;;4994222;28;20423;-84
2023/03/02 02:40:39;;;;;;;50.78;34.63;;;;;;;;;;4995481;28;20371;-84
2023/03/02 02:43:06;;;;;;;47.13;33.90;;;;;;;;;;4993252;28;25113;-82
2023/03/02 02:45:34;;;;;;;46.85;34.42;;;;;;;;;;4992964;28;20906;-82
2023/03/02 02:48:00;;;;;;;50.85;35.17;;;;;;;;;;4992439;28;20411;-83
2023/03/02 02:50:29;;;;;;;47.90;34.13;;;;;;;;;;4992226;28;20457;-83
2023/03/02 02:52:59;;;;;;;47.08;34.30;;;;;;;;;;4994199;28;20922;-83
2023/03/02 02:55:26;;;;;;;47.75;33.67;;;;;;;;;;4993770;28;20386;-84
2023/03/02 02:57:53;;;;;;;48.50;34.33;;;;;;;;;;4995620;28;20390;-83
2023/03/02 03:00:21;;;;;;;46.70;33.40;;;;;;;;;;4992655;28;20448;-83
2023/03/02 03:02:51;;;;;;;50.00;34.45;;;;;;;;;;4976564;28;20389;-83
2023/03/02 03:05:17;;;;;;;47.80;34.78;;;;;;;;;;4974686;28;20390;-83
2023/03/02 03:07:43;;;;;;;47.20;33.58;;;;;;;;;;4977755;28;20720;-84
2023/03/02 03:10:15;;;;;;;47.42;33.35;;;;;;;;;;4995099;28;20387;-83
2023/03/02 03:12:42;;;;;;;48.80;33.95;;;;;;;;;;4993356;28;20405;-83
2023/03/02 03:15:08;;;;;;;49.80;34.60;;;;;;;;;;5000356;28;20379;-83
2023/03/02 03:17:34;;;;;;;48.58;34.45;;;;;;;;;;4994967;28;20475;-83
2023/03/02 03:20:05;;;;;;;51.78;35.67;;;;;;;;;;4999326;28;20543;-84
2023/03/02 03:22:32;;;;;;;50.67;35.57;;;;;;;;;;5001893;28;20479;-83
2023/03/02 03:24:58;;;;;;;54.63;35.53;;;;;;;;;;4999135;28;20747;-83
2023/03/02 03:27:24;;;;;;;51.65;35.00;;;;;;;;;;5011709;28;20407;-83
2023/03/02 03:29:49;;;;;;;51.28;35.42;;;;;;;;;;5011634;28;20404;-84
2023/03/02 03:32:16;;;;;;;53.85;35.83;;;;;;;;;;5012163;28;20508;-83
2023/03/02 03:34:42;;;;;;;51.03;35.47;;;;;;;;;;5012205;28;20397;-83
2023/03/02 03:37:09;;;;;;;54.53;35.95;;;;;;;;;;5010647;28;20947;-84
2023/03/02 03:39:35;;;;;;;53.88;36.10;;;;;;;;;;5010518;28;20395;-83
2023/03/02 03:42:02;;;;;;;52.50;36.05;;;;;;;;;;4997751;28;20490;-83
2023/03/02 03:44:28;;;;;;;51.20;35.20;;;;;;;;;;5014633;28;20471;-83
2023/03/02 03:46:54;;;;;;;51.95;35.42;;;;;;;;;;5004430;28;20397;-84
2023/03/02 03:49:20;;;;;;;55.22;35.60;;;;;;;;;;5002188;28;20467;-83
2023/03/02 03:51:46;;;;;;;56.50;36.63;;;;;;;;;;5002556;28;20438;-82
2023/03/02 03:54:12;;;;;;;53.05;34.97;;;;;;;;;;4984744;28;20405;-83
2023/03/02 03:56:40;;;;;;;50.50;34.65;;;;;;;;;;5013722;28;20396;-84
2023/03/02 03:59:07;;;;;;;58.40;36.75;;;;;;;;;;5012760;28;20527;-83
2023/03/02 04:01:33;;;;;;;52.60;35.60;;;;;;;;;;5011946;28;20370;-83
2023/03/02 04:04:00;;;;;;;56.92;36.10;;;;;;;;;;5012343;28;20758;-83
2023/03/02 04:06:26;;;;;;;55.17;35.25;;;;;;;;;;4988952;28;20931;-83
2023/03/02 04:08:52;;;;;;;56.67;37.42;;;;;;;;;;5009411;28;20484;-83
2023/03/02 04:11:18;;;;;;;57.17;36.08;;;;;;;;;;4992551;28;20420;-82
2023/03/02 04:13:44;;;;;;;53.03;35.30;;;;;;;;;;5007423;28;20383;-83
2023/03/02 04:16:10;;;;;;;49.47;34.43;;;;;;;;;;5008975;28;20393;-83
2023/03/02 04:18:36;;;;;;;55.10;34.85;;;;;;;;;;4991834;28;20426;-84
2023/03/02 04:21:02;;;;;;;56.65;35.65;;;;;;;;;;4992142;28;20395;-83
2023/03/02 04:23:28;;;;;;;79.82;44.38;;;;;;;;;;5010155;28;21072;-83
2023/03/02 04:25:54;;;;;;;80.43;47.92;;;;;;;;;;5007919;28;20385;-83
2023/03/02 04:28:20;;;;;;;58.65;38.05;;;;;;;;;;5009535;28;20948;-83
2023/03/02 04:30:46;;;;;;;63.03;38.35;;;;;;;;;;4992479;28;20443;-83
2023/03/02 04:33:12;;;;;;;57.23;35.83;;;;;;;;;;5010812;28;20461;-83
2023/03/02 04:35:39;;;;;;;68.57;42.28;;;;;;;;;;4993502;28;20424;-83
2023/03/02 04:38:05;;;;;;;56.15;36.05;;;;;;;;;;5007793;28;20449;-83
2023/03/02 04:40:31;;;;;;;53.22;35.42;;;;;;;;;;5011573;28;20846;-83
2023/03/02 04:42:57;;;;;;;54.95;36.10;;;;;;;;;;5011613;28;20381;-83
2023/03/02 04:45:23;;;;;;;54.33;36.53;;;;;;;;;;5011600;28;20502;-83
2023/03/02 04:47:49;;;;;;;57.92;36.13;;;;;;;;;;5011767;28;20389;-84
2023/03/02 04:50:15;;;;;;;54.67;35.83;;;;;;;;;;5011506;28;20723;-83
2023/03/02 04:52:41;;;;;;;53.05;34.22;;;;;;;;;;5011676;28;20395;-83
2023/03/02 04:55:08;;;;;;;70.13;42.67;;;;;;;;;;5011031;28;20464;-83
2023/03/02 04:57:34;;;;;;;82.93;50.33;;;;;;;;;;5012308;28;20396;-83
2023/03/02 05:00:00;;;;;;;68.80;43.10;;;;;;;;;;5015133;28;20862;-83
2023/03/02 05:02:26;;;;;;;93.20;59.13;;;;;;;;;;5015063;28;20400;-83
2023/03/02 05:04:52;;;;;;;51.65;34.08;;;;;;;;;;5015135;28;20381;-83
2023/03/02 05:07:18;;;;;;;54.78;34.30;;;;;;;;;;5015025;28;20483;-83
2023/03/02 05:09:44;;;;;;;58.97;37.33;;;;;;;;;;5014589;28;20392;-83
2023/03/02 05:12:10;;;;;;;56.03;36.60;;;;;;;;;;5015124;28;20440;-83
2023/03/02 05:14:36;;;;;;;53.45;34.25;;;;;;;;;;5015115;28;20866;-84
2023/03/02 05:17:02;;;;;;;55.55;37.13;;;;;;;;;;5015127;28;20400;-83
2023/03/02 05:19:28;;;;;;;55.55;36.72;;;;;;;;;;5000708;28;20399;-83
2023/03/02 05:21:55;;;;;;;50.90;34.47;;;;;;;;;;4995463;28;20863;-83
2023/03/02 05:24:21;;;;;;;55.97;35.40;;;;;;;;;;4995213;28;20401;-83
2023/03/02 05:26:47;;;;;;;53.70;35.65;;;;;;;;;;4996381;28;20752;-83
2023/03/02 05:29:13;;;;;;;57.03;35.63;;;;;;;;;;4996061;28;20386;-83
2023/03/02 05:31:40;;;;;;;57.65;36.47;;;;;;;;;;4995553;28;20525;-83
2023/03/02 05:34:07;;;;;;;54.42;35.33;;;;;;;;;;4994923;28;20390;-83
2023/03/02 05:36:34;;;;;;;57.28;35.45;;;;;;;;;;4994630;28;20390;-84
2023/03/02 05:39:00;;;;;;;54.13;34.78;;;;;;;;;;4996820;28;20395;-84
2023/03/02 05:41:26;;;;;;;54.17;35.00;;;;;;;;;;4992701;28;20388;-84
2023/03/02 05:43:52;;;;;;;53.55;34.58;;;;;;;;;;4994775;28;20393;-84
2023/03/02 05:46:18;;;;;;;52.58;33.22;;;;;;;;;;4994790;28;20466;-84
2023/03/02 05:48:45;;;;;;;49.60;32.58;;;;;;;;;;4998120;28;20699;-83
2023/03/02 05:51:11;;;;;;;50.07;33.47;;;;;;;;;;4998078;28;21044;-83
2023/03/02 05:53:37;;;;;;;46.78;31.73;;;;;;;;;;5000519;28;20846;-83
2023/03/02 05:56:03;;;;;;;49.63;33.50;;;;;;;;;;5013948;28;20384;-82
2023/03/02 05:58:29;;;;;;;46.83;32.55;;;;;;;;;;5012639;28;20380;-82
2023/03/02 06:00:55;;;;;;;50.80;32.00;;;;;;;;;;5013667;28;20480;-82
2023/03/02 06:03:21;;;;;;;49.95;32.85;;;;;;;;;;5009812;28;20479;-82
2023/03/02 06:05:49;;;;;;;48.28;31.98;;;;;;;;;;5014160;28;20420;-81
2023/03/02 06:08:17;;;;;;;46.15;32.15;;;;;;;;;;5013322;28;20754;-81
2023/03/02 06:10:43;;;;;;;47.83;31.77;;;;;;;;;;5013309;28;20405;-82
2023/03/02 06:13:09;;;;;;;47.28;31.00;;;;;;;;;;4998055;28;20429;-81
2023/03/02 06:15:35;;;;;;;47.15;32.45;;;;;;;;;;5012257;28;20754;-81
2023/03/02 06:18:02;;;;;;;48.53;32.73;;;;;;;;;;5004871;28;20382;-81
2023/03/02 06:20:28;;;;;;;50.80;32.73;;;;;;;;;;5002169;28;20537;-81
2023/03/02 06:22:54;;;;;;;48.72;31.73;;;;;;;;;;5012483;28;20400;-81
2023/03/02 06:25:21;;;;;;;47.27;32.43;;;;;;;;;;5012771;28;20420;-81
2023/03/02 06:27:50;;;;;;;48.25;32.25;;;;;;;;;;5001415;28;20404;-81
2023/03/02 06:30:17;;;;;;;49.15;33.17;;;;;;;;;;5012757;28;20400;-81
2023/03/02 06:32:43;;;;;;;44.72;31.55;;;;;;;;;;5013545;28;20400;-81
2023/03/02 06:35:09;;;;;;;44.72;30.92;;;;;;;;;;5013502;28;20451;-81
2023/03/02 06:37:35;;;;;;;45.50;31.03;;;;;;;;;;5012404;28;20570;-81
2023/03/02 06:40:06;;;;;;;49.10;32.40;;;;;;;;;;5011143;28;20411;-81
2023/03/02 06:42:33;;;;;;;45.17;31.35;;;;;;;;;;5013591;28;20409;-81
2023/03/02 06:44:59;;;;;;;49.70;32.33;;;;;;;;;;5013549;28;20782;-81
2023/03/02 06:47:25;;;;;;;44.00;31.35;;;;;;;;;;4995820;28;20450;-81
2023/03/02 06:49:51;;;;;;;47.88;31.58;;;;;;;;;;5013404;28;20833;-81
2023/03/02 06:52:17;;;;;;;47.50;32.38;;;;;;;;;;5013041;28;20420;-81
2023/03/02 06:54:43;;;;;;;44.90;31.33;;;;;;;;;;5012987;28;20396;-81
2023/03/02 06:57:09;;;;;;;45.47;31.98;;;;;;;;;;5013098;28;20795;-81
2023/03/02 06:59:35;;;;;;;48.63;33.30;;;;;;;;;;5012913;28;20715;-81
2023/03/02 07:02:01;;;;;;;50.40;32.28;;;;;;;;;;5012970;28;20400;-81
2023/03/02 07:04:27;;;;;;;47.28;32.47;;;;;;;;;;5013175;28;20377;-81
2023/03/02 07:06:54;;;;;;;46.30;31.88;;;;;;;;;;5015983;28;20393;-81
2023/03/02 07:09:21;;;;;;;45.22;30.55;;;;;;;;;;5015736;28;20385;-81
2023/03/02 07:11:47;;;;;;;44.25;30.45;;;;;;;;;;5016816;28;20432;-81
2023/03/02 07:14:13;;;;;;;42.53;31.08;;;;;;;;;;5017085;28;20747;-81
2023/03/02 07:16:39;;;;;;;44.55;30.95;;;;;;;;;;5014526;28;20389;-81
2023/03/02 07:19:05;;;;;;;42.97;30.48;;;;;;;;;;5011125;28;20919;-81
2023/03/02 07:21:31;;;;;;;45.72;31.13;;;;;;;;;;5012536;28;20373;-81
2023/03/02 07:23:57;;;;;;;44.17;30.70;;;;;;;;;;5013235;28;20893;-81
2023/03/02 07:26:23;;;;;;;39.53;29.83;;;;;;;;;;5013001;28;20385;-81
2023/03/02 07:28:49;;;;;;;44.35;31.63;;;;;;;;;;5012748;28;20385;-81
2023/03/02 07:31:15;;;;;;;42.77;31.60;;;;;;;;;;4991340;28;20420;-81
2023/03/02 07:33:41;;;;;;;41.65;29.83;;;;;;;;;;5012860;28;20439;-81
2023/03/02 07:36:07;;;;;;;44.42;30.42;;;;;;;;;;5003039;28;20386;-81
2023/03/02 07:38:33;;;;;;;46.67;31.02;;;;;;;;;;4993059;28;20425;-82
2023/03/02 07:40:59;;;;;;;42.63;30.98;;;;;;;;;;5006462;28;20412;-81
2023/03/02 07:43:27;;;;;;;46.17;30.67;;;;;;;;;;5012957;28;20450;-82
2023/03/02 07:45:53;;;;;;;42.00;29.33;;;;;;;;;;5012720;28;20472;-81
2023/03/02 07:48:22;;;;;;;42.78;30.02;;;;;;;;;;5012736;28;20404;-81
2023/03/02 07:50:48;;;;;;;60.92;39.40;;;;;;;;;;5011033;28;20412;-81
2023/03/02 07:53:14;;;;;;;47.80;31.98;;;;;;;;;;4995683;28;20386;-82
2023/03/02 07:55:43;;;;;;;44.28;30.90;;;;;;;;;;4992489;28;21034;-82
2023/03/02 07:58:09;;;;;;;45.42;30.70;;;;;;;;;;4992784;28;20465;-82
2023/03/02 08:00:35;;;;;;;44.38;30.10;;;;;;;;;;4995942;28;20430;-79
2023/03/02 08:03:01;;;;;;;44.13;30.10;;;;;;;;;;4997356;28;20427;-83
2023/03/02 08:05:27;;;;;;;46.75;32.30;;;;;;;;;;4998765;28;20793;-80
2023/03/02 08:07:53;;;;;;;46.50;32.25;;;;;;;;;;5013832;28;20439;-82
2023/03/02 08:10:19;;;;;;;48.88;31.65;;;;;;;;;;5018592;28;20411;-83
2023/03/02 08:12:45;;;;;;;46.47;32.08;;;;;;;;;;5009535;28;20405;-82
2023/03/02 08:15:11;;;;;;;47.03;32.00;;;;;;;;;;4988298;28;20403;-80
2023/03/02 08:17:37;;;;;;;69.68;44.45;;;;;;;;;;5012142;28;20487;-80
2023/03/02 08:20:03;;;;;;;47.97;33.05;;;;;;;;;;5012001;28;20476;-83
2023/03/02 08:22:29;;;;;;;48.72;32.90;;;;;;;;;;5007180;28;20396;-84
2023/03/02 08:24:55;;;;;;;47.33;32.40;;;;;;;;;;5011616;28;20393;-83
2023/03/02 08:27:21;;;;;;;47.83;33.17;;;;;;;;;;5012080;28;20404;-84
2023/03/02 08:29:47;;;;;;;46.58;32.10;;;;;;;;;;5011737;28;20385;-83
2023/03/02 08:32:13;;;;;;;47.03;33.50;;;;;;;;;;5011500;28;20428;-83
2023/03/02 08:34:39;;;;;;;51.60;34.22;;;;;;;;;;5011848;28;20377;-83
2023/03/02 08:37:05;;;;;;;46.10;33.53;;;;;;;;;;5012620;28;20953;-83
2023/03/02 08:39:31;;;;;;;46.72;33.22;;;;;;;;;;5010193;28;20376;-83
2023/03/02 08:41:57;;;;;;;48.80;33.37;;;;;;;;;;4992575;28;20441;-82
2023/03/02 08:44:23;;;;;;;48.03;34.20;;;;;;;;;;4992696;28;20383;-83
2023/03/02 08:46:50;;;;;;;49.90;34.45;;;;;;;;;;4992227;28;21107;-83
2023/03/02 08:49:16;;;;;;;51.97;36.10;;;;;;;;;;4991748;28;20409;-83
2023/03/02 08:51:42;;;;;;;48.00;32.50;;;;;;;;;;4995445;28;20413;-82
2023/03/02 08:54:09;;;;;;;49.03;34.47;;;;;;;;;;5011451;28;20388;-82
2023/03/02 08:56:35;;;;;;;56.65;37.15;;;;;;;;;;5011351;28;20484;-82
2023/03/02 08:59:03;;;;;;;56.70;38.03;;;;;;;;;;5011302;28;20421;-81
2023/03/02 09:01:30;;;;;;;55.40;37.13;;;;;;;;;;5011257;28;20435;-82
2023/03/02 09:03:58;;;;;;;56.65;38.22;;;;;;;;;;5011433;28;20386;-83
2023/03/02 09:06:24;;;;;;;58.90;38.17;;;;;;;;;;5011075;28;20854;-82
2023/03/02 09:08:50;;;;;;;55.17;36.30;;;;;;;;;;5011352;28;20419;-83
2023/03/02 09:11:16;;;;;;;48.42;33.70;;;;;;;;;;5011378;28;20416;-82
2023/03/02 09:13:43;;;;;;;49.97;33.38;;;;;;;;;;5011523;28;20388;-81
2023/03/02 09:16:09;;;;;;;45.38;31.52;;;;;;;;;;5002343;28;20389;-82
2023/03/02 09:18:35;;;;;;;46.97;33.43;;;;;;;;;;5011026;28;20925;-82
2023/03/02 09:21:01;;;;;;;48.08;32.50;;;;;;;;;;5003552;28;20473;-83
2023/03/02 09:23:28;;;;;;;47.15;33.75;;;;;;;;;;4991628;28;20383;-83
2023/03/02 09:25:54;;;;;;;50.22;34.10;;;;;;;;;;4991566;28;20386;-82
2023/03/02 09:28:20;;;;;;;44.20;31.92;;;;;;;;;;4991560;28;20399;-83
2023/03/02 09:30:54;;;;;;;48.53;32.95;;;;;;;;;;4991412;28;20930;-82
2023/03/02 09:33:20;;;;;;;48.83;32.85;;;;;;;;;;4991664;28;20416;-82
2023/03/02 09:35:46;;;;;;;46.83;31.83;;;;;;;;;;4991449;28;20386;-79
2023/03/02 09:38:15;;;;;;;44.67;31.83;;;;;;;;;;4994225;28;20383;-80
2023/03/02 09:40:52;;;;;;;45.22;31.85;;;;;;;;;;5002656;28;20793;-82
2023/03/02 09:43:44;;;;;;;47.38;32.22;;;;;;;;;;5011273;28;20381;-82
2023/03/02 09:46:26;;;;;;;48.05;32.25;;;;;;;;;;5011566;28;20404;-82
2023/03/02 09:48:55;;;;;;;49.88;33.28;;;;;;;;;;5014533;28;20435;-82
2023/03/02 09:51:21;;;;;;;48.67;32.90;;;;;;;;;;5014289;28;20412;-83
2023/03/02 09:53:52;;;;;;;49.15;32.90;;;;;;;;;;5014614;28;20414;-83
2023/03/02 09:56:19;;;;;;;50.45;32.97;;;;;;;;;;5014568;28;20850;-82
2023/03/02 09:58:49;;;;;;;48.22;32.75;;;;;;;;;;5014588;28;20385;-81
2023/03/02 10:01:16;;;;;;;46.95;32.20;;;;;;;;;;5014441;28;20391;-83
2023/03/02 10:03:53;;;;;;;48.90;32.95;;;;;;;;;;5013944;28;20384;-83
2023/03/02 10:06:19;;;;;;;46.23;32.30;;;;;;;;;;5014099;28;20431;-82
2023/03/02 10:08:45;;;;;;;43.88;30.77;;;;;;;;;;5013987;28;20858;-83
2023/03/02 10:11:24;;;;;;;45.67;32.20;;;;;;;;;;5013647;28;20474;-81
2023/03/02 10:13:53;;;;;;;49.58;32.78;;;;;;;;;;5011893;28;20524;-82
2023/03/02 10:16:30;;;;;;;46.15;31.63;;;;;;;;;;5005471;28;20399;-80
2023/03/02 10:19:02;;;;;;;42.33;30.88;;;;;;;;;;5006994;28;20426;-82
2023/03/02 10:21:31;;;;;;;45.13;31.58;;;;;;;;;;5006298;28;20421;-86
2023/03/02 10:24:09;;;;;;;44.43;30.90;;;;;;;;;;5013651;28;20857;-85
2023/03/02 10:26:38;;;;;;;47.05;31.45;;;;;;;;;;5013662;28;20395;-83
2023/03/02 10:29:10;;;;;;;46.63;32.38;;;;;;;;;;5018819;28;20393;-83
2023/03/02 10:31:38;;;;;;;44.87;32.13;;;;;;;;;;5012930;28;20435;-82
2023/03/02 10:34:04;;;;;;;41.30;29.73;;;;;;;;;;5003168;28;20384;-81
2023/03/02 10:36:36;;;;;;;44.03;30.48;;;;;;;;;;5013573;28;20406;-81
2023/03/02 10:39:02;;;;;;;42.45;30.70;;;;;;;;;;4991223;28;20398;-80
2023/03/02 10:41:31;;;;;;;41.15;29.13;;;;;;;;;;4992037;28;20397;-81
2023/03/02 10:44:20;;;;;;;40.05;28.73;;;;;;;;;;5014003;28;20405;-81
2023/03/02 10:46:46;;;;;;;42.10;29.45;;;;;;;;;;5009324;28;20397;-83
2023/03/02 10:49:39;;;;;;;45.42;30.65;;;;;;;;;;5005212;28;20389;-82
2023/03/02 10:52:06;;;;;;;43.30;30.27;;;;;;;;;;5008432;28;20432;-81
2023/03/02 10:54:33;;;;;;;42.15;29.92;;;;;;;;;;5003340;28;20451;-82
2023/03/02 10:57:00;;;;;;;42.58;29.67;;;;;;;;;;5006830;28;20422;-83
2023/03/02 10:59:46;;;;;;;40.85;30.38;;;;;;;;;;4986450;28;20407;-86
2023/03/02 11:02:23;;;;;;;44.10;30.33;;;;;;;;;;5010321;28;20488;-86
2023/03/02 11:04:57;;;;;;;42.55;30.55;;;;;;;;;;5013044;28;20389;-86
2023/03/02 11:07:24;;;;;;;43.30;31.15;;;;;;;;;;5012768;28;20865;-86
2023/03/02 11:10:07;;;;;;;44.73;31.43;;;;;;;;;;5012864;28;20887;-86
2023/03/02 11:12:35;;;;;;;146.57;84.60;;;;;;;;;;5012599;28;20559;-86
2023/03/02 11:15:20;;;;;;;45.40;32.22;;;;;;;;;;5013085;28;20946;-86
2023/03/02 11:17:48;;;;;;;45.30;31.83;;;;;;;;;;5012581;28;20401;-86
2023/03/02 11:20:17;;;;;;;41.20;30.48;;;;;;;;;;5012617;28;20408;-86
2023/03/02 11:22:47;;;;;;;43.47;30.77;;;;;;;;;;5012547;28;20392;-86
2023/03/02 11:25:19;;;;;;;52.60;37.67;;;;;;;;;;5012549;28;20442;-86
2023/03/02 11:27:46;;;;;;;47.30;33.50;;;;;;;;;;4995166;28;20443;-86
2023/03/02 11:30:17;;;;;;;43.80;31.05;;;;;;;;;;5012716;28;20389;-86
2023/03/02 11:33:02;;;;;;;43.17;30.83;;;;;;;;;;5012677;28;20422;-85
2023/03/02 11:35:32;;;;;;;43.08;29.23;;;;;;;;;;5012921;28;20870;-87
2023/03/02 11:38:16;;;;;;;44.08;31.52;;;;;;;;;;5012632;28;20404;-86
2023/03/02 11:40:46;;;;;;;43.87;31.17;;;;;;;;;;5012348;28;20410;-87
2023/03/02 11:43:12;;;;;;;39.47;29.83;;;;;;;;;;5012237;28;20396;-86
2023/03/02 11:45:43;;;;;;;47.28;30.90;;;;;;;;;;5012313;28;20389;-86
2023/03/02 11:48:18;;;;;;;45.13;31.48;;;;;;;;;;5011291;28;20393;-87
2023/03/02 11:50:53;;;;;;;50.50;33.47;;;;;;;;;;4992738;28;20407;-86
2023/03/02 11:53:20;;;;;;;48.47;33.73;;;;;;;;;;4992855;28;20879;-86
2023/03/02 11:55:48;;;;;;;49.55;32.40;;;;;;;;;;4992839;28;20879;-86
2023/03/02 11:58:24;;;;;;;49.72;32.28;;;;;;;;;;4992762;28;20390;-86
2023/03/02 12:00:52;;;;;;;48.00;32.15;;;;;;;;;;5001413;28;25095;-86
2023/03/02 12:03:17;;;;;;;48.92;33.38;;;;;;;;;;5013500;28;20422;-87
2023/03/02 12:05:45;;;;;;;49.08;33.83;;;;;;;;;;4992160;28;20725;-86
2023/03/02 12:08:20;;;;;;;49.15;33.42;;;;;;;;;;5005990;28;20393;-86
2023/03/02 12:10:55;;;;;;;45.63;31.85;;;;;;;;;;5015176;28;25137;-86
2023/03/02 12:13:25;;;;;;;45.72;32.05;;;;;;;;;;5009403;28;20389;-87
2023/03/02 12:15:51;;;;;;;47.17;31.88;;;;;;;;;;5012493;28;20396;-86
2023/03/02 12:18:20;;;;;;;46.23;32.20;;;;;;;;;;5012214;28;20412;-86
2023/03/02 12:20:57;;;;;;;47.95;32.10;;;;;;;;;;5011931;28;20843;-86
2023/03/02 12:23:24;;;;;;;47.13;32.93;;;;;;;;;;5011626;28;20469;-87
2023/03/02 12:26:00;;;;;;;43.23;30.90;;;;;;;;;;4995628;28;20476;-87
2023/03/02 12:28:28;;;;;;;45.23;30.57;;;;;;;;;;5015248;28;20399;-86
2023/03/02 12:31:05;;;;;;;41.78;29.75;;;;;;;;;;5012718;28;20404;-86
2023/03/02 12:33:31;;;;;;;43.13;30.20;;;;;;;;;;5011980;28;20790;-86
2023/03/02 12:36:03;;;;;;;48.67;32.33;;;;;;;;;;5011898;28;20862;-86
2023/03/02 12:38:32;;;;;;;52.33;32.08;;;;;;;;;;4994017;28;20397;-87
2023/03/02 12:40:58;;;;;;;45.30;30.58;;;;;;;;;;5011924;28;20396;-86
2023/03/02 12:43:27;;;;;;;48.95;31.70;;;;;;;;;;4993728;28;20404;-86
2023/03/02 12:46:12;;;;;;;46.78;30.00;;;;;;;;;;5011500;28;20402;-86
2023/03/02 12:48:43;;;;;;;43.58;30.30;;;;;;;;;;5011475;28;20384;-87
2023/03/02 12:51:16;;;;;;;42.67;30.00;;;;;;;;;;4993576;28;20413;-86
2023/03/02 12:53:42;;;;;;;41.63;29.87;;;;;;;;;;5011538;28;20862;-86
2023/03/02 12:56:09;;;;;;;46.25;30.38;;;;;;;;;;5011621;28;20487;-86
2023/03/02 12:58:34;;;;;;;45.53;31.10;;;;;;;;;;5011576;28;20385;-86
2023/03/02 13:01:01;;;;;;;43.22;30.33;;;;;;;;;;5011666;28;20886;-86
2023/03/02 13:03:29;;;;;;;48.38;31.50;;;;;;;;;;5011660;28;20698;-87
2023/03/02 13:06:10;;;;;;;45.13;30.60;;;;;;;;;;5011292;28;20813;-86
2023/03/02 13:08:36;;;;;;;44.50;30.80;;;;;;;;;;4993413;28;20417;-87
2023/03/02 13:11:02;;;;;;;47.33;32.33;;;;;;;;;;5011085;28;20945;-86
2023/03/02 13:13:28;;;;;;;54.47;36.25;;;;;;;;;;5011344;28;20730;-86
2023/03/02 13:16:01;;;;;;;44.42;31.17;;;;;;;;;;5011307;28;20385;-86
2023/03/02 13:18:30;;;;;;;128.00;59.90;;;;;;;;;;5011895;28;20908;-86
2023/03/02 13:20:57;;;;;;;42.83;30.13;;;;;;;;;;4997272;28;20400;-86
2023/03/02 13:23:24;;;;;;;59.13;39.47;;;;;;;;;;5015316;28;20708;-87
2023/03/02 13:25:52;;;;;;;48.55;32.65;;;;;;;;;;5006535;28;20599;-86
2023/03/02 13:28:23;;;;;;;49.53;34.10;;;;;;;;;;5015132;28;20385;-86
2023/03/02 13:30:55;;;;;;;43.13;30.70;;;;;;;;;;5014494;28;20952;-86
2023/03/02 13:33:22;;;;;;;48.20;32.15;;;;;;;;;;5014795;28;20388;-86
2023/03/02 13:35:48;;;;;;;44.90;30.80;;;;;;;;;;5014605;28;20389;-87
2023/03/02 13:38:19;;;;;;;44.10;30.58;;;;;;;;;;5014630;28;20385;-86
2023/03/02 13:40:47;;;;;;;42.90;29.80;;;;;;;;;;5014743;28;20835;-87
2023/03/02 13:43:42;;;;;;;45.43;31.70;;;;;;;;;;5014785;28;20480;-86
2023/03/02 13:46:11;;;;;;;44.35;31.13;;;;;;;;;;4981082;28;20410;-86
2023/03/02 13:48:37;;;;;;;50.47;34.97;;;;;;;;;;4994897;28;20383;-87
2023/03/02 13:51:13;;;;;;;41.20;29.52;;;;;;;;;;4993162;28;20924;-87
2023/03/02 13:53:42;;;;;;;46.73;32.17;;;;;;;;;;5022484;28;20393;-86
2023/03/02 13:56:10;;;;;;;43.60;29.13;;;;;;;;;;5024718;28;20385;-86
2023/03/02 13:58:37;;;;;;;44.13;29.88;;;;;;;;;;5028438;28;20404;-87
2023/03/02 14:01:04;;;;;;;41.97;29.37;;;;;;;;;;5016880;28;20498;-87
2023/03/02 14:03:30;;;;;;;40.10;28.83;;;;;;;;;;5003040;28;20382;-86
2023/03/02 14:05:57;;;;;;;44.33;30.35;;;;;;;;;;5015263;28;20392;-86
2023/03/02 14:08:24;;;;;;;44.40;30.52;;;;;;;;;;5015268;28;20384;-86
2023/03/02 14:10:52;;;;;;;43.03;29.90;;;;;;;;;;5014663;28;20424;-86
2023/03/02 14:13:23;;;;;;;43.00;29.33;;;;;;;;;;5014739;28;20934;-86
2023/03/02 14:15:50;;;;;;;44.22;31.83;;;;;;;;;;5013845;28;20393;-86
2023/03/02 14:18:19;;;;;;;41.15;29.13;;;;;;;;;;4999698;28;20421;-87
2023/03/02 14:20:45;;;;;;;40.47;29.10;;;;;;;;;;5012310;28;20480;-87